sensor_id;sensor_type;location;lat;lon;timestamp;temperature;humidity
65568;DHT22;52211;50.154;8.682;2023-04-19T00:02:05;14.30;55.60
65568;DHT22;52211;50.154;8.682;2023-04-19T00:04:36;14.30;55.60
65568;DHT22;52211;50.154;8.682;2023-04-19T00:07:03;14.20;55.50
65568;DHT22;52211;50.154;8.682;2023-04-19T00:09:30;14.20;55.60
65568;DHT22;52211;50.154;8.682;2023-04-19T00:12:05;14.20;55.50
65568;DHT22;52211;50.154;8.682;2023-04-19T00:14:36;14.20;55.70
65568;DHT22;52211;50.154;8.682;2023-04-19T00:17:03;14.20;55.70
65568;DHT22;52211;50.154;8.682;2023-04-19T00:19:30;14.20;55.80
65568;DHT22;52211;50.154;8.682;2023-04-19T00:21:59;14.20;55.80
65568;DHT22;52211;50.154;8.682;2023-04-19T00:24:30;14.10;55.80
65568;DHT22;52211;50.154;8.682;2023-04-19T00:27:03;14.10;55.90
65568;DHT22;52211;50.154;8.682;2023-04-19T00:29:32;14.20;55.90
65568;DHT22;52211;50.154;8.682;2023-04-19T00:32:04;14.20;56.00
65568;DHT22;52211;50.154;8.682;2023-04-19T00:34:31;14.20;56.10
65568;DHT22;52211;50.154;8.682;2023-04-19T00:37:01;14.20;56.00
65568;DHT22;52211;50.154;8.682;2023-04-19T00:39:31;14.20;56.00
65568;DHT22;52211;50.154;8.682;2023-04-19T00:42:03;14.20;56.10
65568;DHT22;52211;50.154;8.682;2023-04-19T00:44:35;14.20;56.10
65568;DHT22;52211;50.154;8.682;2023-04-19T00:47:04;14.20;56.20
65568;DHT22;52211;50.154;8.682;2023-04-19T00:49:31;14.20;56.20
65568;DHT22;52211;50.154;8.682;2023-04-19T00:51:58;14.20;56.20
65568;DHT22;52211;50.154;8.682;2023-04-19T00:54:28;14.20;56.20
65568;DHT22;52211;50.154;8.682;2023-04-19T00:56:55;14.20;56.30
65568;DHT22;52211;50.154;8.682;2023-04-19T00:59:23;14.20;56.40
65568;DHT22;52211;50.154;8.682;2023-04-19T01:01:53;14.20;56.40
65568;DHT22;52211;50.154;8.682;2023-04-19T01:04:20;14.20;56.30
65568;DHT22;52211;50.154;8.682;2023-04-19T01:06:54;14.20;56.40
65568;DHT22;52211;50.154;8.682;2023-04-19T01:09:26;14.20;56.30
65568;DHT22;52211;50.154;8.682;2023-04-19T01:11:55;14.10;56.40
65568;DHT22;52211;50.154;8.682;2023-04-19T01:14:27;14.10;56.40
65568;DHT22;52211;50.154;8.682;2023-04-19T01:16:55;14.10;56.50
65568;DHT22;52211;50.154;8.682;2023-04-19T01:19:22;14.10;56.50
65568;DHT22;52211;50.154;8.682;2023-04-19T01:21:52;14.10;56.50
65568;DHT22;52211;50.154;8.682;2023-04-19T01:24:19;14.00;56.60
65568;DHT22;52211;50.154;8.682;2023-04-19T01:26:51;14.00;56.60
65568;DHT22;52211;50.154;8.682;2023-04-19T01:29:20;14.10;56.80
65568;DHT22;52211;50.154;8.682;2023-04-19T01:31:49;14.00;56.70
65568;DHT22;52211;50.154;8.682;2023-04-19T01:34:21;14.00;56.70
65568;DHT22;52211;50.154;8.682;2023-04-19T01:36:48;14.00;56.90
65568;DHT22;52211;50.154;8.682;2023-04-19T01:39:18;14.00;56.80
65568;DHT22;52211;50.154;8.682;2023-04-19T01:41:45;14.00;56.90
65568;DHT22;52211;50.154;8.682;2023-04-19T01:44:17;14.00;56.90
65568;DHT22;52211;50.154;8.682;2023-04-19T01:46:46;14.00;57.10
65568;DHT22;52211;50.154;8.682;2023-04-19T01:49:13;14.00;57.00
65568;DHT22;52211;50.154;8.682;2023-04-19T01:51:42;14.00;57.10
65568;DHT22;52211;50.154;8.682;2023-04-19T01:54:14;14.00;57.10
65568;DHT22;52211;50.154;8.682;2023-04-19T01:56:41;14.00;57.10
65568;DHT22;52211;50.154;8.682;2023-04-19T01:59:08;14.00;57.10
65568;DHT22;52211;50.154;8.682;2023-04-19T02:01:38;14.00;57.10
65568;DHT22;52211;50.154;8.682;2023-04-19T02:04:06;14.00;57.20
65568;DHT22;52211;50.154;8.682;2023-04-19T02:06:38;14.00;57.10
65568;DHT22;52211;50.154;8.682;2023-04-19T02:09:07;14.00;57.10
65568;DHT22;52211;50.154;8.682;2023-04-19T02:11:37;14.00;57.10
65568;DHT22;52211;50.154;8.682;2023-04-19T02:14:06;14.00;57.20
65568;DHT22;52211;50.154;8.682;2023-04-19T02:16:35;13.90;57.10
65568;DHT22;52211;50.154;8.682;2023-04-19T02:19:07;14.00;57.10
65568;DHT22;52211;50.154;8.682;2023-04-19T02:21:37;14.00;57.90
65568;DHT22;52211;50.154;8.682;2023-04-19T02:24:04;13.90;57.10
65568;DHT22;52211;50.154;8.682;2023-04-19T02:26:31;13.90;57.10
65568;DHT22;52211;50.154;8.682;2023-04-19T02:28:59;13.90;57.20
65568;DHT22;52211;50.154;8.682;2023-04-19T02:31:26;13.90;57.20
65568;DHT22;52211;50.154;8.682;2023-04-19T02:33:53;13.90;57.30
65568;DHT22;52211;50.154;8.682;2023-04-19T02:36:22;13.90;57.30
65568;DHT22;52211;50.154;8.682;2023-04-19T02:38:51;13.90;58.00
65568;DHT22;52211;50.154;8.682;2023-04-19T02:41:19;13.80;57.30
65568;DHT22;52211;50.154;8.682;2023-04-19T02:43:50;13.80;57.30
65568;DHT22;52211;50.154;8.682;2023-04-19T02:46:22;13.80;57.30
65568;DHT22;52211;50.154;8.682;2023-04-19T02:48:49;13.80;57.40
65568;DHT22;52211;50.154;8.682;2023-04-19T02:51:18;13.80;57.50
65568;DHT22;52211;50.154;8.682;2023-04-19T02:53:45;13.70;57.50
65568;DHT22;52211;50.154;8.682;2023-04-19T02:56:14;13.70;57.60
65568;DHT22;52211;50.154;8.682;2023-04-19T02:58:49;13.70;57.60
65568;DHT22;52211;50.154;8.682;2023-04-19T03:01:16;13.60;57.60
65568;DHT22;52211;50.154;8.682;2023-04-19T03:03:45;13.60;57.60
65568;DHT22;52211;50.154;8.682;2023-04-19T03:06:12;13.60;57.70
65568;DHT22;52211;50.154;8.682;2023-04-19T03:08:45;13.50;57.70
65568;DHT22;52211;50.154;8.682;2023-04-19T03:11:18;13.50;58.00
65568;DHT22;52211;50.154;8.682;2023-04-19T03:13:57;13.50;57.90
65568;DHT22;52211;50.154;8.682;2023-04-19T03:16:26;13.50;58.10
65568;DHT22;52211;50.154;8.682;2023-04-19T03:18:55;13.40;58.00
65568;DHT22;52211;50.154;8.682;2023-04-19T03:21:30;13.40;58.00
65568;DHT22;52211;50.154;8.682;2023-04-19T03:24:00;13.40;58.20
65568;DHT22;52211;50.154;8.682;2023-04-19T03:26:27;13.40;58.20
65568;DHT22;52211;50.154;8.682;2023-04-19T03:28:56;13.40;58.20
65568;DHT22;52211;50.154;8.682;2023-04-19T03:31:35;13.40;58.20
65568;DHT22;52211;50.154;8.682;2023-04-19T03:34:05;13.40;58.50
65568;DHT22;52211;50.154;8.682;2023-04-19T03:36:38;13.40;58.40
65568;DHT22;52211;50.154;8.682;2023-04-19T03:39:09;13.40;58.50
65568;DHT22;52211;50.154;8.682;2023-04-19T03:41:41;13.40;58.60
65568;DHT22;52211;50.154;8.682;2023-04-19T03:44:16;13.40;58.60
65568;DHT22;52211;50.154;8.682;2023-04-19T03:46:50;13.50;58.50
65568;DHT22;52211;50.154;8.682;2023-04-19T03:49:21;13.50;58.60
65568;DHT22;52211;50.154;8.682;2023-04-19T03:52:00;13.50;58.60
65568;DHT22;52211;50.154;8.682;2023-04-19T03:54:31;13.40;58.50
65568;DHT22;52211;50.154;8.682;2023-04-19T03:56:58;13.50;58.70
65568;DHT22;52211;50.154;8.682;2023-04-19T03:59:26;13.50;58.70
65568;DHT22;52211;50.154;8.682;2023-04-19T04:01:56;13.50;58.80
65568;DHT22;52211;50.154;8.682;2023-04-19T04:04:26;13.50;58.90
65568;DHT22;52211;50.154;8.682;2023-04-19T04:06:59;13.40;58.80
65568;DHT22;52211;50.154;8.682;2023-04-19T04:09:28;13.50;58.90
65568;DHT22;52211;50.154;8.682;2023-04-19T04:12:00;13.50;59.70
65568;DHT22;52211;50.154;8.682;2023-04-19T04:14:30;13.50;59.00
65568;DHT22;52211;50.154;8.682;2023-04-19T04:16:57;13.50;59.10
65568;DHT22;52211;50.154;8.682;2023-04-19T04:19:24;13.50;59.20
65568;DHT22;52211;50.154;8.682;2023-04-19T04:21:54;13.50;59.20
65568;DHT22;52211;50.154;8.682;2023-04-19T04:24:20;13.50;59.40
65568;DHT22;52211;50.154;8.682;2023-04-19T04:27:08;13.50;59.30
65568;DHT22;52211;50.154;8.682;2023-04-19T04:29:43;13.50;59.30
65568;DHT22;52211;50.154;8.682;2023-04-19T04:32:12;13.50;59.40
65568;DHT22;52211;50.154;8.682;2023-04-19T04:34:44;13.50;59.30
65568;DHT22;52211;50.154;8.682;2023-04-19T04:37:23;13.50;59.40
65568;DHT22;52211;50.154;8.682;2023-04-19T04:39:55;13.50;59.30
65568;DHT22;52211;50.154;8.682;2023-04-19T04:42:24;13.50;59.30
65568;DHT22;52211;50.154;8.682;2023-04-19T04:44:57;13.50;59.40
65568;DHT22;52211;50.154;8.682;2023-04-19T04:47:32;13.60;59.40
65568;DHT22;52211;50.154;8.682;2023-04-19T04:50:03;13.60;59.60
65568;DHT22;52211;50.154;8.682;2023-04-19T04:52:33;13.60;59.40
65568;DHT22;52211;50.154;8.682;2023-04-19T04:55:10;13.60;59.40
65568;DHT22;52211;50.154;8.682;2023-04-19T04:57:44;13.60;60.10
65568;DHT22;52211;50.154;8.682;2023-04-19T05:00:17;13.60;59.70
65568;DHT22;52211;50.154;8.682;2023-04-19T05:02:53;13.60;59.60
65568;DHT22;52211;50.154;8.682;2023-04-19T05:05:23;13.60;59.60
65568;DHT22;52211;50.154;8.682;2023-04-19T05:07:52;13.60;59.50
65568;DHT22;52211;50.154;8.682;2023-04-19T05:10:23;13.60;59.60
65568;DHT22;52211;50.154;8.682;2023-04-19T05:12:53;13.60;59.60
65568;DHT22;52211;50.154;8.682;2023-04-19T05:15:26;13.60;59.60
65568;DHT22;52211;50.154;8.682;2023-04-19T05:17:59;13.60;59.60
65568;DHT22;52211;50.154;8.682;2023-04-19T05:20:27;13.60;59.80
65568;DHT22;52211;50.154;8.682;2023-04-19T05:23:04;13.60;59.60
65568;DHT22;52211;50.154;8.682;2023-04-19T05:25:33;13.60;59.60
65568;DHT22;52211;50.154;8.682;2023-04-19T05:28:00;13.60;59.70
65568;DHT22;52211;50.154;8.682;2023-04-19T05:30:36;13.60;59.60
65568;DHT22;52211;50.154;8.682;2023-04-19T05:33:03;13.70;59.60
65568;DHT22;52211;50.154;8.682;2023-04-19T05:35:31;13.60;59.60
65568;DHT22;52211;50.154;8.682;2023-04-19T05:38:00;13.70;59.60
65568;DHT22;52211;50.154;8.682;2023-04-19T05:40:27;13.70;59.60
65568;DHT22;52211;50.154;8.682;2023-04-19T05:42:57;13.70;59.70
65568;DHT22;52211;50.154;8.682;2023-04-19T05:45:24;13.70;59.60
65568;DHT22;52211;50.154;8.682;2023-04-19T05:47:54;13.70;59.60
65568;DHT22;52211;50.154;8.682;2023-04-19T05:50:23;13.70;59.70
65568;DHT22;52211;50.154;8.682;2023-04-19T05:53:15;13.80;59.70
65568;DHT22;52211;50.154;8.682;2023-04-19T05:55:52;13.80;59.70
65568;DHT22;52211;50.154;8.682;2023-04-19T05:58:22;13.80;59.60
65568;DHT22;52211;50.154;8.682;2023-04-19T06:00:50;13.80;59.60
65568;DHT22;52211;50.154;8.682;2023-04-19T06:03:19;13.80;60.30
65568;DHT22;52211;50.154;8.682;2023-04-19T06:05:48;13.80;59.60
65568;DHT22;52211;50.154;8.682;2023-04-19T06:08:16;13.80;59.60
65568;DHT22;52211;50.154;8.682;2023-04-19T06:10:44;13.90;59.60
65568;DHT22;52211;50.154;8.682;2023-04-19T06:13:24;13.90;59.60
65568;DHT22;52211;50.154;8.682;2023-04-19T06:15:54;13.90;59.50
65568;DHT22;52211;50.154;8.682;2023-04-19T06:18:23;13.90;59.40
65568;DHT22;52211;50.154;8.682;2023-04-19T06:20:55;13.90;59.40
65568;DHT22;52211;50.154;8.682;2023-04-19T06:23:22;14.00;59.30
65568;DHT22;52211;50.154;8.682;2023-04-19T06:25:49;14.00;59.80
65568;DHT22;52211;50.154;8.682;2023-04-19T06:28:20;14.00;59.20
65568;DHT22;52211;50.154;8.682;2023-04-19T06:30:47;14.00;59.20
65568;DHT22;52211;50.154;8.682;2023-04-19T06:33:18;14.00;59.10
65568;DHT22;52211;50.154;8.682;2023-04-19T06:35:47;14.00;59.20
65568;DHT22;52211;50.154;8.682;2023-04-19T06:38:14;14.00;59.00
65568;DHT22;52211;50.154;8.682;2023-04-19T06:40:41;14.10;59.00
65568;DHT22;52211;50.154;8.682;2023-04-19T06:43:10;14.00;58.90
65568;DHT22;52211;50.154;8.682;2023-04-19T06:45:42;14.10;59.00
65568;DHT22;52211;50.154;8.682;2023-04-19T06:48:09;14.00;58.90
65568;DHT22;52211;50.154;8.682;2023-04-19T06:50:36;14.00;58.90
65568;DHT22;52211;50.154;8.682;2023-04-19T06:53:03;14.00;58.90
65568;DHT22;52211;50.154;8.682;2023-04-19T06:55:35;14.00;58.90
65568;DHT22;52211;50.154;8.682;2023-04-19T06:58:05;14.10;58.80
65568;DHT22;52211;50.154;8.682;2023-04-19T07:00:38;14.10;58.80
65568;DHT22;52211;50.154;8.682;2023-04-19T07:03:06;14.10;58.80
65568;DHT22;52211;50.154;8.682;2023-04-19T07:05:32;14.10;58.70
65568;DHT22;52211;50.154;8.682;2023-04-19T07:08:06;14.10;58.60
65568;DHT22;52211;50.154;8.682;2023-04-19T07:10:35;14.10;58.60
65568;DHT22;52211;50.154;8.682;2023-04-19T07:13:05;14.10;58.60
65568;DHT22;52211;50.154;8.682;2023-04-19T07:15:31;14.10;58.50
65568;DHT22;52211;50.154;8.682;2023-04-19T07:18:03;14.10;58.50
65568;DHT22;52211;50.154;8.682;2023-04-19T07:20:37;14.10;58.50
65568;DHT22;52211;50.154;8.682;2023-04-19T07:23:10;14.10;58.50
65568;DHT22;52211;50.154;8.682;2023-04-19T07:25:39;14.10;58.40
65568;DHT22;52211;50.154;8.682;2023-04-19T07:28:11;14.10;58.40
65568;DHT22;52211;50.154;8.682;2023-04-19T07:30:41;14.10;58.50
65568;DHT22;52211;50.154;8.682;2023-04-19T07:33:13;14.10;58.40
65568;DHT22;52211;50.154;8.682;2023-04-19T07:35:41;14.20;58.40
65568;DHT22;52211;50.154;8.682;2023-04-19T07:38:10;14.20;58.40
65568;DHT22;52211;50.154;8.682;2023-04-19T07:40:39;14.20;58.40
65568;DHT22;52211;50.154;8.682;2023-04-19T07:43:11;14.30;58.40
65568;DHT22;52211;50.154;8.682;2023-04-19T07:45:42;14.30;58.20
65568;DHT22;52211;50.154;8.682;2023-04-19T07:48:14;14.30;58.10
65568;DHT22;52211;50.154;8.682;2023-04-19T07:50:41;14.30;58.00
65568;DHT22;52211;50.154;8.682;2023-04-19T07:53:08;14.40;58.00
65568;DHT22;52211;50.154;8.682;2023-04-19T07:55:39;14.50;58.00
65568;DHT22;52211;50.154;8.682;2023-04-19T07:58:13;14.50;57.80
65568;DHT22;52211;50.154;8.682;2023-04-19T08:00:40;14.60;57.60
65568;DHT22;52211;50.154;8.682;2023-04-19T08:03:09;14.60;57.70
65568;DHT22;52211;50.154;8.682;2023-04-19T08:05:43;14.60;57.70
65568;DHT22;52211;50.154;8.682;2023-04-19T08:08:11;14.70;57.70
65568;DHT22;52211;50.154;8.682;2023-04-19T08:10:40;14.70;57.60
65568;DHT22;52211;50.154;8.682;2023-04-19T08:13:09;14.70;57.40
65568;DHT22;52211;50.154;8.682;2023-04-19T08:15:38;14.70;57.40
65568;DHT22;52211;50.154;8.682;2023-04-19T08:18:10;14.80;57.40
65568;DHT22;52211;50.154;8.682;2023-04-19T08:20:40;14.80;57.20
65568;DHT22;52211;50.154;8.682;2023-04-19T08:23:08;14.90;57.20
65568;DHT22;52211;50.154;8.682;2023-04-19T08:25:54;14.90;57.20
65568;DHT22;52211;50.154;8.682;2023-04-19T08:28:22;15.00;57.10
65568;DHT22;52211;50.154;8.682;2023-04-19T08:30:54;15.00;57.10
65568;DHT22;52211;50.154;8.682;2023-04-19T08:33:27;15.10;57.10
65568;DHT22;52211;50.154;8.682;2023-04-19T08:35:56;15.10;57.00
65568;DHT22;52211;50.154;8.682;2023-04-19T08:38:27;15.20;57.00
65568;DHT22;52211;50.154;8.682;2023-04-19T08:40:57;15.20;57.00
65568;DHT22;52211;50.154;8.682;2023-04-19T08:43:31;15.30;56.90
65568;DHT22;52211;50.154;8.682;2023-04-19T08:46:06;15.30;56.40
65568;DHT22;52211;50.154;8.682;2023-04-19T08:48:39;15.40;56.60
65568;DHT22;52211;50.154;8.682;2023-04-19T08:51:07;15.40;56.50
65568;DHT22;52211;50.154;8.682;2023-04-19T08:53:38;15.50;56.20
65568;DHT22;52211;50.154;8.682;2023-04-19T08:56:07;15.50;56.20
65568;DHT22;52211;50.154;8.682;2023-04-19T08:58:52;15.60;56.20
65568;DHT22;52211;50.154;8.682;2023-04-19T09:01:41;15.60;56.10
65568;DHT22;52211;50.154;8.682;2023-04-19T09:04:11;15.70;56.00
65568;DHT22;52211;50.154;8.682;2023-04-19T09:06:41;15.70;56.00
65568;DHT22;52211;50.154;8.682;2023-04-19T09:09:22;15.80;56.10
65568;DHT22;52211;50.154;8.682;2023-04-19T09:11:56;15.90;55.90
65568;DHT22;52211;50.154;8.682;2023-04-19T09:14:26;16.00;56.00
65568;DHT22;52211;50.154;8.682;2023-04-19T09:17:15;16.00;55.80
65568;DHT22;52211;50.154;8.682;2023-04-19T09:19:47;16.10;55.10
65568;DHT22;52211;50.154;8.682;2023-04-19T09:22:15;16.10;55.40
65568;DHT22;52211;50.154;8.682;2023-04-19T09:24:45;16.20;55.40
65568;DHT22;52211;50.154;8.682;2023-04-19T09:27:34;16.30;55.30
65568;DHT22;52211;50.154;8.682;2023-04-19T09:30:03;16.30;55.30
65568;DHT22;52211;50.154;8.682;2023-04-19T09:32:47;16.40;55.30
65568;DHT22;52211;50.154;8.682;2023-04-19T09:35:15;16.40;54.70
65568;DHT22;52211;50.154;8.682;2023-04-19T09:37:59;16.50;55.10
65568;DHT22;52211;50.154;8.682;2023-04-19T09:40:31;16.60;54.70
65568;DHT22;52211;50.154;8.682;2023-04-19T09:42:58;16.70;54.90
65568;DHT22;52211;50.154;8.682;2023-04-19T09:45:45;16.70;54.70
65568;DHT22;52211;50.154;8.682;2023-04-19T09:48:15;16.80;54.20
65568;DHT22;52211;50.154;8.682;2023-04-19T09:50:55;16.80;54.00
65568;DHT22;52211;50.154;8.682;2023-04-19T09:53:38;16.80;53.60
65568;DHT22;52211;50.154;8.682;2023-04-19T09:56:07;16.90;53.70
65568;DHT22;52211;50.154;8.682;2023-04-19T09:58:38;16.90;54.00
65568;DHT22;52211;50.154;8.682;2023-04-19T10:01:20;16.90;53.80
65568;DHT22;52211;50.154;8.682;2023-04-19T10:03:51;17.00;53.90
65568;DHT22;52211;50.154;8.682;2023-04-19T10:06:24;17.00;53.70
65568;DHT22;52211;50.154;8.682;2023-04-19T10:09:00;17.00;53.50
65568;DHT22;52211;50.154;8.682;2023-04-19T10:11:34;17.10;53.00
65568;DHT22;52211;50.154;8.682;2023-04-19T10:14:11;17.20;53.00
65568;DHT22;52211;50.154;8.682;2023-04-19T10:16:43;17.30;52.50
65568;DHT22;52211;50.154;8.682;2023-04-19T10:19:15;17.40;53.00
65568;DHT22;52211;50.154;8.682;2023-04-19T10:21:46;17.50;52.70
65568;DHT22;52211;50.154;8.682;2023-04-19T10:24:18;17.50;52.30
65568;DHT22;52211;50.154;8.682;2023-04-19T10:27:27;17.60;52.30
65568;DHT22;52211;50.154;8.682;2023-04-19T10:32:39;17.80;52.00
65568;DHT22;52211;50.154;8.682;2023-04-19T10:35:21;17.90;51.70
65568;DHT22;52211;50.154;8.682;2023-04-19T10:38:05;18.00;51.50
65568;DHT22;52211;50.154;8.682;2023-04-19T10:43:29;18.20;51.20
65568;DHT22;52211;50.154;8.682;2023-04-19T10:49:00;18.50;51.70
65568;DHT22;52211;50.154;8.682;2023-04-19T10:51:38;18.70;50.70
65568;DHT22;52211;50.154;8.682;2023-04-19T10:54:29;18.90;50.90
65568;DHT22;52211;50.154;8.682;2023-04-19T10:57:09;19.20;51.30
65568;DHT22;52211;50.154;8.682;2023-04-19T10:59:39;19.50;50.90
65568;DHT22;52211;50.154;8.682;2023-04-19T11:07:23;20.20;49.20
65568;DHT22;52211;50.154;8.682;2023-04-19T11:09:53;20.40;49.20
65568;DHT22;52211;50.154;8.682;2023-04-19T11:12:24;20.70;49.00
65568;DHT22;52211;50.154;8.682;2023-04-19T11:14:54;20.90;48.40
65568;DHT22;52211;50.154;8.682;2023-04-19T11:17:30;21.10;48.50
65568;DHT22;52211;50.154;8.682;2023-04-19T11:20:02;21.40;48.10
65568;DHT22;52211;50.154;8.682;2023-04-19T11:22:40;21.60;48.00
65568;DHT22;52211;50.154;8.682;2023-04-19T11:25:12;21.90;48.00
65568;DHT22;52211;50.154;8.682;2023-04-19T11:27:51;22.20;47.40
65568;DHT22;52211;50.154;8.682;2023-04-19T11:30:20;22.40;46.70
65568;DHT22;52211;50.154;8.682;2023-04-19T11:32:57;22.70;46.80
65568;DHT22;52211;50.154;8.682;2023-04-19T11:35:28;22.90;46.10
65568;DHT22;52211;50.154;8.682;2023-04-19T11:38:00;23.10;45.80
65568;DHT22;52211;50.154;8.682;2023-04-19T11:40:30;23.30;45.40
65568;DHT22;52211;50.154;8.682;2023-04-19T11:43:02;23.50;44.50
65568;DHT22;52211;50.154;8.682;2023-04-19T11:45:37;23.70;44.60
65568;DHT22;52211;50.154;8.682;2023-04-19T11:48:12;23.90;43.90
65568;DHT22;52211;50.154;8.682;2023-04-19T11:50:44;24.00;44.30
65568;DHT22;52211;50.154;8.682;2023-04-19T11:53:20;24.30;43.90
65568;DHT22;52211;50.154;8.682;2023-04-19T11:55:50;24.30;43.30
65568;DHT22;52211;50.154;8.682;2023-04-19T12:01:20;24.50;41.90
65568;DHT22;52211;50.154;8.682;2023-04-19T12:03:50;24.60;41.40
65568;DHT22;52211;50.154;8.682;2023-04-19T12:08:55;24.90;42.10
65568;DHT22;52211;50.154;8.682;2023-04-19T12:11:41;25.10;41.40
65568;DHT22;52211;50.154;8.682;2023-04-19T12:14:16;25.20;41.20
65568;DHT22;52211;50.154;8.682;2023-04-19T12:17:10;25.40;41.30
65568;DHT22;52211;50.154;8.682;2023-04-19T12:19:45;25.50;40.50
65568;DHT22;52211;50.154;8.682;2023-04-19T12:22:17;25.70;40.60
65568;DHT22;52211;50.154;8.682;2023-04-19T12:24:55;25.80;39.70
65568;DHT22;52211;50.154;8.682;2023-04-19T12:27:23;25.80;39.00
65568;DHT22;52211;50.154;8.682;2023-04-19T12:29:56;25.90;39.90
65568;DHT22;52211;50.154;8.682;2023-04-19T12:32:23;26.00;39.50
65568;DHT22;52211;50.154;8.682;2023-04-19T12:34:53;26.10;39.30
65568;DHT22;52211;50.154;8.682;2023-04-19T12:37:22;26.10;39.10
65568;DHT22;52211;50.154;8.682;2023-04-19T12:39:51;26.20;38.90
65568;DHT22;52211;50.154;8.682;2023-04-19T12:42:21;26.20;38.20
65568;DHT22;52211;50.154;8.682;2023-04-19T12:44:51;26.30;38.50
65568;DHT22;52211;50.154;8.682;2023-04-19T12:47:25;26.30;38.10
65568;DHT22;52211;50.154;8.682;2023-04-19T12:49:52;26.40;37.20
65568;DHT22;52211;50.154;8.682;2023-04-19T12:52:23;26.40;37.40
65568;DHT22;52211;50.154;8.682;2023-04-19T12:54:52;26.40;37.00
65568;DHT22;52211;50.154;8.682;2023-04-19T12:57:24;26.40;37.00
65568;DHT22;52211;50.154;8.682;2023-04-19T12:59:53;26.40;36.90
65568;DHT22;52211;50.154;8.682;2023-04-19T13:02:25;26.50;36.90
65568;DHT22;52211;50.154;8.682;2023-04-19T13:04:52;26.50;35.70
65568;DHT22;52211;50.154;8.682;2023-04-19T13:07:21;26.60;36.30
65568;DHT22;52211;50.154;8.682;2023-04-19T13:09:54;26.60;36.00
65568;DHT22;52211;50.154;8.682;2023-04-19T13:12:25;26.60;36.10
65568;DHT22;52211;50.154;8.682;2023-04-19T13:14:52;26.60;35.90
65568;DHT22;52211;50.154;8.682;2023-04-19T13:17:19;26.70;35.50
65568;DHT22;52211;50.154;8.682;2023-04-19T13:19:46;26.70;35.40
65568;DHT22;52211;50.154;8.682;2023-04-19T13:22:18;26.70;34.90
65568;DHT22;52211;50.154;8.682;2023-04-19T13:24:48;26.70;34.30
65568;DHT22;52211;50.154;8.682;2023-04-19T13:27:17;26.50;34.40
65568;DHT22;52211;50.154;8.682;2023-04-19T13:29:46;26.50;34.60
65568;DHT22;52211;50.154;8.682;2023-04-19T13:32:13;26.40;33.90
65568;DHT22;52211;50.154;8.682;2023-04-19T13:34:47;26.30;32.90
65568;DHT22;52211;50.154;8.682;2023-04-19T13:37:14;26.10;32.60
65568;DHT22;52211;50.154;8.682;2023-04-19T13:39:41;25.90;32.70
65568;DHT22;52211;50.154;8.682;2023-04-19T13:42:08;25.90;32.50
65568;DHT22;52211;50.154;8.682;2023-04-19T13:44:39;25.80;32.20
65568;DHT22;52211;50.154;8.682;2023-04-19T13:47:06;25.70;31.90
65568;DHT22;52211;50.154;8.682;2023-04-19T13:49:35;25.70;32.60
65568;DHT22;52211;50.154;8.682;2023-04-19T13:52:02;25.80;32.60
65568;DHT22;52211;50.154;8.682;2023-04-19T13:54:31;25.80;32.30
65568;DHT22;52211;50.154;8.682;2023-04-19T13:57:01;25.80;32.20
65568;DHT22;52211;50.154;8.682;2023-04-19T13:59:30;25.80;31.80
65568;DHT22;52211;50.154;8.682;2023-04-19T14:01:59;25.90;31.90
65568;DHT22;52211;50.154;8.682;2023-04-19T14:04:32;25.90;32.00
65568;DHT22;52211;50.154;8.682;2023-04-19T14:07:01;26.00;31.80
65568;DHT22;52211;50.154;8.682;2023-04-19T14:09:35;26.00;31.50
65568;DHT22;52211;50.154;8.682;2023-04-19T14:12:05;26.10;32.70
65568;DHT22;52211;50.154;8.682;2023-04-19T14:14:36;26.20;31.90
65568;DHT22;52211;50.154;8.682;2023-04-19T14:17:05;26.20;31.30
65568;DHT22;52211;50.154;8.682;2023-04-19T14:19:37;26.20;31.40
65568;DHT22;52211;50.154;8.682;2023-04-19T14:22:08;26.20;31.10
65568;DHT22;52211;50.154;8.682;2023-04-19T14:24:37;26.10;31.00
65568;DHT22;52211;50.154;8.682;2023-04-19T14:27:09;26.00;31.00
65568;DHT22;52211;50.154;8.682;2023-04-19T14:29:40;26.00;31.70
65568;DHT22;52211;50.154;8.682;2023-04-19T14:32:09;26.00;30.70
65568;DHT22;52211;50.154;8.682;2023-04-19T14:34:53;25.90;30.50
65568;DHT22;52211;50.154;8.682;2023-04-19T14:37:27;25.80;30.60
65568;DHT22;52211;50.154;8.682;2023-04-19T14:39:57;25.80;30.40
65568;DHT22;52211;50.154;8.682;2023-04-19T14:42:25;25.70;30.30
65568;DHT22;52211;50.154;8.682;2023-04-19T14:44:58;25.60;30.10
65568;DHT22;52211;50.154;8.682;2023-04-19T14:47:30;25.50;29.90
65568;DHT22;52211;50.154;8.682;2023-04-19T14:49:57;25.30;30.00
65568;DHT22;52211;50.154;8.682;2023-04-19T14:52:28;25.10;29.60
65568;DHT22;52211;50.154;8.682;2023-04-19T14:55:06;24.80;29.40
65568;DHT22;52211;50.154;8.682;2023-04-19T14:57:33;24.50;29.60
65568;DHT22;52211;50.154;8.682;2023-04-19T15:00:00;24.30;29.80
65568;DHT22;52211;50.154;8.682;2023-04-19T15:02:30;24.10;29.80
65568;DHT22;52211;50.154;8.682;2023-04-19T15:05:02;24.00;29.90
65568;DHT22;52211;50.154;8.682;2023-04-19T15:07:30;23.80;30.00
65568;DHT22;52211;50.154;8.682;2023-04-19T15:10:02;23.70;30.00
65568;DHT22;52211;50.154;8.682;2023-04-19T15:12:34;23.50;29.70
65568;DHT22;52211;50.154;8.682;2023-04-19T15:15:01;23.40;29.90
65568;DHT22;52211;50.154;8.682;2023-04-19T15:17:27;23.30;30.00
65568;DHT22;52211;50.154;8.682;2023-04-19T15:19:54;23.10;30.00
65568;DHT22;52211;50.154;8.682;2023-04-19T15:22:26;23.00;30.00
65568;DHT22;52211;50.154;8.682;2023-04-19T15:24:53;23.00;30.00
65568;DHT22;52211;50.154;8.682;2023-04-19T15:27:20;22.80;30.00
65568;DHT22;52211;50.154;8.682;2023-04-19T15:29:49;22.70;29.90
65568;DHT22;52211;50.154;8.682;2023-04-19T15:32:20;22.50;29.90
65568;DHT22;52211;50.154;8.682;2023-04-19T15:34:48;22.30;29.90
65568;DHT22;52211;50.154;8.682;2023-04-19T15:37:19;22.10;30.00
65568;DHT22;52211;50.154;8.682;2023-04-19T15:39:49;21.90;30.00
65568;DHT22;52211;50.154;8.682;2023-04-19T15:42:18;21.60;30.00
65568;DHT22;52211;50.154;8.682;2023-04-19T15:44:45;21.40;30.10
65568;DHT22;52211;50.154;8.682;2023-04-19T15:47:16;21.20;30.20
65568;DHT22;52211;50.154;8.682;2023-04-19T15:49:43;21.10;30.20
65568;DHT22;52211;50.154;8.682;2023-04-19T15:52:15;21.00;30.10
65568;DHT22;52211;50.154;8.682;2023-04-19T15:54:44;20.80;30.10
65568;DHT22;52211;50.154;8.682;2023-04-19T15:57:15;20.60;30.20
65568;DHT22;52211;50.154;8.682;2023-04-19T15:59:43;20.40;30.30
65568;DHT22;52211;50.154;8.682;2023-04-19T16:02:09;20.20;30.50
65568;DHT22;52211;50.154;8.682;2023-04-19T16:04:39;20.10;30.50
65568;DHT22;52211;50.154;8.682;2023-04-19T16:07:08;19.90;30.50
65568;DHT22;52211;50.154;8.682;2023-04-19T16:09:35;19.80;30.70
65568;DHT22;52211;50.154;8.682;2023-04-19T16:12:06;19.50;30.70
65568;DHT22;52211;50.154;8.682;2023-04-19T16:14:33;19.40;30.90